Time;durP1;ratioP1;P1;durP2;ratioP2;P2;SDS_P1;SDS_P2;PMS_P1;PMS_P2;Temp;Humidity;BMP_temperature;BMP_pressure;BME280_temperature;BME280_humidity;BME280_pressure;Samples;Min_cycle;Max_cycle;Signal;HPM_P1;HPM_P2
2022/06/17 00:01:54;;;;;;;;;;;21.00;88.90;;;;;;4375044;32;45715;-77
2022/06/17 00:04:21;;;;;;;;;;;20.90;88.90;;;;;;4361760;32;42506;-78
2022/06/17 00:06:50;;;;;;;;;;;20.90;89.00;;;;;;4375143;32;43417;-78
2022/06/17 00:09:21;;;;;;;;;;;20.90;89.20;;;;;;4374723;32;44195;-78
2022/06/17 00:11:48;;;;;;;;;;;20.90;89.30;;;;;;4362043;32;43034;-78
2022/06/17 00:14:20;;;;;;;;;;;20.90;88.40;;;;;;4375356;32;43905;-78
2022/06/17 00:16:47;;;;;;;;;;;20.80;88.30;;;;;;4361401;32;44081;-78
2022/06/17 00:19:17;;;;;;;;;;;20.80;88.30;;;;;;4374866;32;43861;-77
2022/06/17 00:21:46;;;;;;;;;;;20.80;88.70;;;;;;4375128;32;44145;-77
2022/06/17 00:24:21;;;;;;;;;;;20.80;89.00;;;;;;4361586;32;44226;-78
2022/06/17 00:26:48;;;;;;;;;;;20.80;89.10;;;;;;4374578;32;43473;-78
2022/06/17 00:29:19;;;;;;;;;;;20.80;89.00;;;;;;4361600;32;44592;-78
2022/06/17 00:31:48;;;;;;;;;;;20.80;89.30;;;;;;4375055;32;43924;-78
2022/06/17 00:34:16;;;;;;;;;;;20.70;89.60;;;;;;4374558;32;44196;-78
2022/06/17 00:36:43;;;;;;;;;;;20.80;89.30;;;;;;4361231;32;42898;-78
2022/06/17 00:39:15;;;;;;;;;;;20.70;89.90;;;;;;4375204;32;44286;-78
2022/06/17 00:41:44;;;;;;;;;;;20.80;90.10;;;;;;4360790;32;43006;-78
2022/06/17 00:44:30;;;;;;;;;;;20.80;90.10;;;;;;4374476;32;42974;-78
2022/06/17 00:47:00;;;;;;;;;;;20.80;89.80;;;;;;4375781;32;20349;-78
2022/06/17 00:49:46;;;;;;;;;;;20.80;89.40;;;;;;4374775;32;42832;-77
2022/06/17 00:52:16;;;;;;;;;;;20.70;89.70;;;;;;4374589;32;44286;-78
2022/06/17 00:54:44;;;;;;;;;;;20.70;89.30;;;;;;4374447;32;42782;-78
2022/06/17 00:57:18;;;;;;;;;;;20.60;89.90;;;;;;4374828;32;42133;-78
2022/06/17 00:59:59;;;;;;;;;;;20.70;90.10;;;;;;4376052;32;43034;-78
2022/06/17 01:02:27;;;;;;;;;;;20.70;90.10;;;;;;4363968;32;43279;-78
2022/06/17 01:04:55;;;;;;;;;;;20.70;90.20;;;;;;4363944;32;43682;-78
2022/06/17 01:07:23;;;;;;;;;;;20.60;90.10;;;;;;4363882;32;44333;-78
2022/06/17 01:10:01;;;;;;;;;;;20.60;90.20;;;;;;4377716;32;42725;-78
2022/06/17 01:12:33;;;;;;;;;;;20.60;90.20;;;;;;4377308;32;42283;-78
2022/06/17 01:15:00;;;;;;;;;;;20.60;90.40;;;;;;4364347;32;44145;-78
2022/06/17 01:17:27;;;;;;;;;;;20.60;90.40;;;;;;4378068;32;20059;-78
2022/06/17 01:19:59;;;;;;;;;;;20.60;90.50;;;;;;4377596;32;43750;-78
2022/06/17 01:22:26;;;;;;;;;;;20.70;90.50;;;;;;4364602;32;43342;-78
2022/06/17 01:25:06;;;;;;;;;;;20.60;90.50;;;;;;4363787;32;43582;-78
2022/06/17 01:27:37;;;;;;;;;;;20.70;90.60;;;;;;4377728;32;43270;-78
2022/06/17 01:30:05;;;;;;;;;;;20.60;90.60;;;;;;4364313;32;42802;-78
2022/06/17 01:32:36;;;;;;;;;;;20.60;90.50;;;;;;4363916;32;44863;-78
2022/06/17 01:35:04;;;;;;;;;;;20.60;90.70;;;;;;4376952;32;42871;-78
2022/06/17 01:37:31;;;;;;;;;;;20.60;91.10;;;;;;4363650;32;43904;-78
2022/06/17 01:39:59;;;;;;;;;;;20.60;90.80;;;;;;4376846;32;42416;-78
2022/06/17 01:42:26;;;;;;;;;;;20.60;90.80;;;;;;4377223;32;43604;-78
2022/06/17 01:44:54;;;;;;;;;;;20.60;90.70;;;;;;4363363;32;42464;-78
2022/06/17 01:47:22;;;;;;;;;;;20.60;90.70;;;;;;4363406;32;43254;-78
2022/06/17 01:50:09;;;;;;;;;;;20.60;90.70;;;;;;4377157;32;44879;-78
2022/06/17 01:52:38;;;;;;;;;;;20.50;90.70;;;;;;4377075;32;43218;-78
2022/06/17 01:55:11;;;;;;;;;;;20.50;90.60;;;;;;4363674;32;44188;-78
2022/06/17 01:57:42;;;;;;;;;;;20.50;90.80;;;;;;4363518;32;45620;-78
2022/06/17 02:00:15;;;;;;;;;;;20.50;90.60;;;;;;4377173;32;43892;-78
2022/06/17 02:02:44;;;;;;;;;;;20.50;90.50;;;;;;4376418;32;42967;-78
2022/06/17 02:05:14;;;;;;;;;;;20.40;90.50;;;;;;4363056;32;43130;-78
2022/06/17 02:07:46;;;;;;;;;;;20.40;90.50;;;;;;4376435;32;44065;-79
2022/06/17 02:10:13;;;;;;;;;;;20.40;90.70;;;;;;4376401;32;42500;-78
2022/06/17 02:12:41;;;;;;;;;;;20.40;90.80;;;;;;4376796;32;45996;-79
2022/06/17 02:15:09;;;;;;;;;;;20.40;90.80;;;;;;4376852;32;43281;-79
2022/06/17 02:17:38;;;;;;;;;;;20.40;90.80;;;;;;4376497;32;44246;-78
2022/06/17 02:20:06;;;;;;;;;;;20.40;90.70;;;;;;4364441;32;20095;-78
2022/06/17 02:22:35;;;;;;;;;;;20.40;90.70;;;;;;4376710;32;44004;-79
2022/06/17 02:25:05;;;;;;;;;;;20.40;90.90;;;;;;4363211;32;43866;-79
2022/06/17 02:27:33;;;;;;;;;;;20.40;90.50;;;;;;4376118;32;42906;-79
2022/06/17 02:30:01;;;;;;;;;;;20.30;90.30;;;;;;4376703;32;45862;-79
2022/06/17 02:32:29;;;;;;;;;;;20.30;90.50;;;;;;4376570;32;43564;-78
2022/06/17 02:35:00;;;;;;;;;;;20.30;90.50;;;;;;4363087;32;43228;-78
2022/06/17 02:37:28;;;;;;;;;;;20.30;90.70;;;;;;4362617;32;43865;-78
2022/06/17 02:39:56;;;;;;;;;;;20.30;90.70;;;;;;4362636;32;43751;-78
2022/06/17 02:42:26;;;;;;;;;;;20.30;90.40;;;;;;4363015;32;43473;-78
2022/06/17 02:44:55;;;;;;;;;;;20.30;90.50;;;;;;4376093;32;42255;-79
2022/06/17 02:47:23;;;;;;;;;;;20.30;90.60;;;;;;4362400;32;45877;-79
2022/06/17 02:49:51;;;;;;;;;;;20.30;91.00;;;;;;4362874;32;43798;-78
2022/06/17 02:52:21;;;;;;;;;;;20.30;90.80;;;;;;4376521;32;45268;-78
2022/06/17 02:54:52;;;;;;;;;;;20.20;90.70;;;;;;4375854;32;42871;-78
2022/06/17 02:57:21;;;;;;;;;;;20.20;90.70;;;;;;4362798;32;43968;-78
2022/06/17 02:59:54;;;;;;;;;;;20.20;90.80;;;;;;4362645;32;42765;-78
2022/06/17 03:02:24;;;;;;;;;;;20.20;90.80;;;;;;4375532;32;42817;-78
2022/06/17 03:04:53;;;;;;;;;;;20.20;90.80;;;;;;4376108;32;44836;-78
2022/06/17 03:07:21;;;;;;;;;;;20.20;90.80;;;;;;4362250;32;42858;-78
2022/06/17 03:09:48;;;;;;;;;;;20.20;90.80;;;;;;4375811;32;42901;-78
2022/06/17 03:12:18;;;;;;;;;;;20.20;90.60;;;;;;4362884;32;43114;-79
2022/06/17 03:14:51;;;;;;;;;;;20.20;90.70;;;;;;4375964;32;43524;-78
2022/06/17 03:17:23;;;;;;;;;;;20.20;90.90;;;;;;4362492;32;43750;-78
2022/06/17 03:19:52;;;;;;;;;;;20.10;90.60;;;;;;4376023;32;44328;-78
2022/06/17 03:22:21;;;;;;;;;;;20.10;90.90;;;;;;4362715;32;20090;-78
2022/06/17 03:25:07;;;;;;;;;;;20.10;90.90;;;;;;4375406;32;43279;-79
2022/06/17 03:27:46;;;;;;;;;;;20.10;91.00;;;;;;4362424;32;43357;-78
2022/06/17 03:30:16;;;;;;;;;;;20.10;90.90;;;;;;4362757;32;44268;-79
2022/06/17 03:32:48;;;;;;;;;;;20.10;90.90;;;;;;4375270;32;43056;-79
2022/06/17 03:35:23;;;;;;;;;;;20.00;91.00;;;;;;4362590;32;43199;-79
2022/06/17 03:37:50;;;;;;;;;;;20.00;91.10;;;;;;4375422;32;43239;-79
2022/06/17 03:40:27;;;;;;;;;;;20.00;91.00;;;;;;4375588;32;43618;-79
2022/06/17 03:43:06;;;;;;;;;;;20.00;91.10;;;;;;4375396;32;43621;-79
2022/06/17 03:45:49;;;;;;;;;;;20.00;90.90;;;;;;4361672;32;42886;-79
2022/06/17 03:48:18;;;;;;;;;;;20.00;91.20;;;;;;4375543;32;42882;-79
2022/06/17 03:50:47;;;;;;;;;;;20.00;91.20;;;;;;4362027;32;44257;-79
2022/06/17 03:53:21;;;;;;;;;;;20.00;91.20;;;;;;4376288;32;20000;-79
2022/06/17 03:55:50;;;;;;;;;;;20.00;91.30;;;;;;4361830;32;43463;-79
2022/06/17 03:58:18;;;;;;;;;;;20.00;91.30;;;;;;4375506;32;45385;-79
2022/06/17 04:00:54;;;;;;;;;;;20.00;91.30;;;;;;4361500;32;43110;-79
2022/06/17 04:03:23;;;;;;;;;;;20.00;91.20;;;;;;4374986;32;43922;-80
2022/06/17 04:05:55;;;;;;;;;;;20.00;91.30;;;;;;4374989;32;42805;-79
2022/06/17 04:08:22;;;;;;;;;;;20.00;91.30;;;;;;4374765;32;42958;-79
2022/06/17 04:10:49;;;;;;;;;;;20.00;91.30;;;;;;4375247;32;44207;-79
2022/06/17 04:13:17;;;;;;;;;;;20.00;91.50;;;;;;4375159;32;43207;-80
2022/06/17 04:15:57;;;;;;;;;;;20.00;91.40;;;;;;4375218;32;44215;-80
2022/06/17 04:18:24;;;;;;;;;;;20.00;91.40;;;;;;4374914;32;42963;-80
2022/06/17 04:20:54;;;;;;;;;;;20.00;91.30;;;;;;4361731;32;45794;-80
2022/06/17 04:23:33;;;;;;;;;;;20.00;91.30;;;;;;4375838;32;20035;-79
2022/06/17 04:26:09;;;;;;;;;;;20.00;91.30;;;;;;4361669;32;45374;-80
2022/06/17 04:28:41;;;;;;;;;;;20.00;91.30;;;;;;4361139;32;46033;-80
2022/06/17 04:31:11;;;;;;;;;;;20.00;91.00;;;;;;4375253;32;43537;-79
2022/06/17 04:33:47;;;;;;;;;;;20.00;91.10;;;;;;4374563;32;44281;-78
2022/06/17 04:36:17;;;;;;;;;;;19.90;91.00;;;;;;4361776;32;43012;-79
2022/06/17 04:39:00;;;;;;;;;;;19.90;90.80;;;;;;4374512;32;44202;-78
2022/06/17 04:41:29;;;;;;;;;;;19.90;90.80;;;;;;4361295;32;42804;-78
2022/06/17 04:43:57;;;;;;;;;;;19.90;90.90;;;;;;4374815;32;43470;-79
2022/06/17 04:46:28;;;;;;;;;;;19.90;90.80;;;;;;4374881;32;43346;-79
2022/06/17 04:48:57;;;;;;;;;;;19.90;90.80;;;;;;4374419;32;42875;-78
2022/06/17 04:51:25;;;;;;;;;;;19.90;91.00;;;;;;4374867;32;44277;-79
2022/06/17 04:53:59;;;;;;;;;;;19.90;91.00;;;;;;4375634;32;20001;-78
2022/06/17 04:56:27;;;;;;;;;;;19.90;91.10;;;;;;4375021;32;44247;-78
2022/06/17 04:58:55;;;;;;;;;;;19.90;91.20;;;;;;4374439;32;44022;-78
2022/06/17 05:01:24;;;;;;;;;;;19.90;91.10;;;;;;4361270;32;44328;-78
2022/06/17 05:03:53;;;;;;;;;;;19.80;91.10;;;;;;4361294;32;44223;-78
2022/06/17 05:06:20;;;;;;;;;;;19.90;91.30;;;;;;4361304;32;43187;-78
2022/06/17 05:09:00;;;;;;;;;;;19.90;91.40;;;;;;4374868;32;43742;-78
2022/06/17 05:11:31;;;;;;;;;;;19.90;91.40;;;;;;4374891;32;43278;-78
2022/06/17 05:13:58;;;;;;;;;;;19.90;91.20;;;;;;4361037;32;43813;-78
2022/06/17 05:16:25;;;;;;;;;;;19.90;91.20;;;;;;4360836;32;42998;-79
2022/06/17 05:18:52;;;;;;;;;;;19.90;91.30;;;;;;4374393;32;44150;-78
2022/06/17 05:21:22;;;;;;;;;;;19.90;91.50;;;;;;4360998;32;43487;-78
2022/06/17 05:23:50;;;;;;;;;;;19.90;91.40;;;;;;4374343;32;44239;-79
2022/06/17 05:26:17;;;;;;;;;;;19.80;91.10;;;;;;4374945;32;43727;-79
2022/06/17 05:28:46;;;;;;;;;;;19.90;91.30;;;;;;4374512;32;43172;-78
2022/06/17 05:31:16;;;;;;;;;;;19.90;91.30;;;;;;4374160;32;43843;-79
2022/06/17 05:33:43;;;;;;;;;;;19.80;91.40;;;;;;4374177;32;43077;-79
2022/06/17 05:36:10;;;;;;;;;;;19.80;91.50;;;;;;4374332;32;44121;-79
2022/06/17 05:38:37;;;;;;;;;;;19.80;91.80;;;;;;4374601;32;43142;-79
2022/06/17 05:41:05;;;;;;;;;;;19.90;91.80;;;;;;4361167;32;43849;-79
2022/06/17 05:43:33;;;;;;;;;;;19.90;91.70;;;;;;4361055;32;42921;-79
2022/06/17 05:46:04;;;;;;;;;;;19.90;91.70;;;;;;4363740;32;43183;-79
2022/06/17 05:48:32;;;;;;;;;;;19.80;91.60;;;;;;4377203;32;43023;-79
2022/06/17 05:50:59;;;;;;;;;;;19.90;91.80;;;;;;4377241;32;44019;-78
2022/06/17 05:53:26;;;;;;;;;;;19.80;91.90;;;;;;4376405;32;44150;-77
2022/06/17 05:55:54;;;;;;;;;;;19.90;91.90;;;;;;4376915;32;43252;-79
2022/06/17 05:58:22;;;;;;;;;;;19.90;91.90;;;;;;4376404;32;43843;-78
2022/06/17 06:00:50;;;;;;;;;;;19.90;91.90;;;;;;4376478;32;42851;-78
2022/06/17 06:03:22;;;;;;;;;;;19.80;91.90;;;;;;4362966;32;45747;-78
2022/06/17 06:05:52;;;;;;;;;;;19.80;91.90;;;;;;4376595;32;43008;-78
2022/06/17 06:08:19;;;;;;;;;;;19.80;92.10;;;;;;4376583;32;42812;-78
2022/06/17 06:10:46;;;;;;;;;;;19.80;92.10;;;;;;4362683;32;44745;-78
2022/06/17 06:13:14;;;;;;;;;;;19.80;92.20;;;;;;4376414;32;43416;-77
2022/06/17 06:15:42;;;;;;;;;;;19.80;92.40;;;;;;4376435;32;43929;-78
2022/06/17 06:18:14;;;;;;;;;;;19.90;92.50;;;;;;4363360;32;43240;-78
2022/06/17 06:20:41;;;;;;;;;;;19.90;92.40;;;;;;4376191;32;42842;-78
2022/06/17 06:23:08;;;;;;;;;;;19.90;92.40;;;;;;4376547;32;43884;-78
2022/06/17 06:25:36;;;;;;;;;;;19.90;92.30;;;;;;4376275;32;42704;-78
2022/06/17 06:28:11;;;;;;;;;;;19.90;92.50;;;;;;4362893;32;42693;-78
2022/06/17 06:30:38;;;;;;;;;;;19.90;92.50;;;;;;4363044;32;43808;-77
2022/06/17 06:33:05;;;;;;;;;;;19.90;92.50;;;;;;4376567;32;43490;-79
2022/06/17 06:35:33;;;;;;;;;;;19.90;92.50;;;;;;4362890;32;44999;-79
2022/06/17 06:38:01;;;;;;;;;;;19.90;92.50;;;;;;4376370;32;44191;-78
2022/06/17 06:40:29;;;;;;;;;;;20.00;92.60;;;;;;4376171;32;42836;-81
2022/06/17 06:42:56;;;;;;;;;;;19.90;92.50;;;;;;4376232;32;43347;-79
2022/06/17 06:45:25;;;;;;;;;;;19.90;92.30;;;;;;4376466;32;44175;-79
2022/06/17 06:47:53;;;;;;;;;;;20.00;92.40;;;;;;4376260;32;43921;-78
2022/06/17 06:50:21;;;;;;;;;;;20.00;92.20;;;;;;4362603;32;42986;-78
2022/06/17 06:52:48;;;;;;;;;;;20.00;92.10;;;;;;4375747;32;44214;-78
2022/06/17 06:55:16;;;;;;;;;;;20.00;92.10;;;;;;4375482;32;44544;-80
2022/06/17 06:57:51;;;;;;;;;;;20.00;91.70;;;;;;4361481;32;43314;-79
2022/06/17 07:00:20;;;;;;;;;;;20.00;91.90;;;;;;4362583;32;43807;-81
2022/06/17 07:02:48;;;;;;;;;;;20.00;91.80;;;;;;4362240;32;43566;-78
2022/06/17 07:05:15;;;;;;;;;;;20.00;91.50;;;;;;4362300;32;42723;-77
2022/06/17 07:07:42;;;;;;;;;;;20.00;91.50;;;;;;4362239;32;43851;-80
2022/06/17 07:10:11;;;;;;;;;;;20.00;91.80;;;;;;4362105;32;42855;-79
2022/06/17 07:12:39;;;;;;;;;;;20.00;92.20;;;;;;4362155;32;43471;-78
2022/06/17 07:15:06;;;;;;;;;;;20.00;91.90;;;;;;4376058;32;43980;-80
2022/06/17 07:17:34;;;;;;;;;;;20.00;91.80;;;;;;4375832;32;44403;-79
2022/06/17 07:20:01;;;;;;;;;;;20.00;91.70;;;;;;4362199;32;43187;-78
2022/06/17 07:22:28;;;;;;;;;;;20.00;91.90;;;;;;4362014;32;42879;-77
2022/06/17 07:24:56;;;;;;;;;;;20.00;92.00;;;;;;4362267;32;42782;-81
2022/06/17 07:27:23;;;;;;;;;;;20.10;92.10;;;;;;4375721;32;44102;-78
2022/06/17 07:29:50;;;;;;;;;;;20.10;91.70;;;;;;4362149;32;44869;-80
2022/06/17 07:32:17;;;;;;;;;;;20.10;91.80;;;;;;4362265;32;43605;-79
2022/06/17 07:34:45;;;;;;;;;;;20.10;91.90;;;;;;4362364;32;43297;-81
2022/06/17 07:39:58;;;;;;;;;;;20.10;92.00;;;;;;4375212;32;44034;-79
2022/06/17 07:42:37;;;;;;;;;;;20.10;92.10;;;;;;4375295;32;43933;-79
2022/06/17 07:45:06;;;;;;;;;;;20.20;92.10;;;;;;4362401;32;43879;-78
2022/06/17 07:47:33;;;;;;;;;;;20.10;91.60;;;;;;4362134;32;43248;-80
2022/06/17 07:50:00;;;;;;;;;;;20.10;91.70;;;;;;4375771;32;43702;-79
2022/06/17 07:52:27;;;;;;;;;;;20.20;91.80;;;;;;4375278;32;43126;-80
2022/06/17 07:54:54;;;;;;;;;;;20.20;92.00;;;;;;4374889;32;44052;-78
2022/06/17 07:57:22;;;;;;;;;;;20.20;91.90;;;;;;4362473;32;20409;-81
2022/06/17 07:59:49;;;;;;;;;;;20.20;92.10;;;;;;4374807;32;42652;-80
2022/06/17 08:02:16;;;;;;;;;;;20.20;92.10;;;;;;4361215;32;44017;-78
2022/06/17 08:04:43;;;;;;;;;;;20.20;92.00;;;;;;4361998;32;43498;-78
2022/06/17 08:07:11;;;;;;;;;;;20.30;92.20;;;;;;4375175;32;44222;-78
2022/06/17 08:09:38;;;;;;;;;;;20.30;92.20;;;;;;4361405;32;45492;-78
2022/06/17 08:12:08;;;;;;;;;;;20.30;92.30;;;;;;4361351;32;43330;-80
2022/06/17 08:14:35;;;;;;;;;;;20.30;92.30;;;;;;4361471;32;43848;-79
2022/06/17 08:17:03;;;;;;;;;;;20.30;92.40;;;;;;4374665;32;44419;-80
2022/06/17 08:19:30;;;;;;;;;;;20.30;92.10;;;;;;4375207;32;44187;-79
2022/06/17 08:21:57;;;;;;;;;;;20.30;92.00;;;;;;4361227;32;42923;-78
2022/06/17 08:24:25;;;;;;;;;;;20.30;91.80;;;;;;4375012;32;43394;-79
2022/06/17 08:26:52;;;;;;;;;;;20.30;92.10;;;;;;4374550;32;43478;-77
2022/06/17 08:29:20;;;;;;;;;;;20.40;92.40;;;;;;4361019;32;44172;-80
2022/06/17 08:34:53;;;;;;;;;;;20.40;92.20;;;;;;4374490;32;43796;-77
2022/06/17 08:37:23;;;;;;;;;;;20.40;92.10;;;;;;4361237;32;43651;-78
2022/06/17 08:39:51;;;;;;;;;;;20.40;92.30;;;;;;4374789;32;44736;-79
2022/06/17 08:42:28;;;;;;;;;;;20.50;92.30;;;;;;4374471;32;44265;-78
2022/06/17 08:45:13;;;;;;;;;;;20.50;92.40;;;;;;4374455;32;42801;-78
2022/06/17 08:47:50;;;;;;;;;;;20.50;92.20;;;;;;4360924;32;43947;-79
2022/06/17 08:50:23;;;;;;;;;;;20.50;92.10;;;;;;4361582;32;45684;-78
2022/06/17 08:52:59;;;;;;;;;;;20.60;91.90;;;;;;4361249;32;43084;-78
2022/06/17 08:55:45;;;;;;;;;;;20.60;92.00;;;;;;4374740;32;44197;-78
2022/06/17 08:58:17;;;;;;;;;;;20.60;92.20;;;;;;4375024;32;45227;-80
2022/06/17 09:01:03;;;;;;;;;;;20.60;92.10;;;;;;4375118;32;43960;-77
2022/06/17 09:03:33;;;;;;;;;;;20.70;91.90;;;;;;4361046;32;44780;-79
2022/06/17 09:06:00;;;;;;;;;;;20.60;92.00;;;;;;4360860;32;43920;-78
2022/06/17 09:08:40;;;;;;;;;;;20.70;92.10;;;;;;4374565;32;43889;-80
2022/06/17 09:11:10;;;;;;;;;;;20.70;91.10;;;;;;4374353;32;45983;-80
2022/06/17 09:13:43;;;;;;;;;;;20.70;91.20;;;;;;4374584;32;45140;-79
2022/06/17 09:16:13;;;;;;;;;;;20.70;91.00;;;;;;4361347;32;43662;-80
2022/06/17 09:18:46;;;;;;;;;;;20.70;91.10;;;;;;4361411;32;43496;-79
2022/06/17 09:21:21;;;;;;;;;;;20.70;91.00;;;;;;4376287;32;44127;-78
2022/06/17 09:23:49;;;;;;;;;;;20.70;91.40;;;;;;4377557;32;45919;-78
2022/06/17 09:26:22;;;;;;;;;;;20.80;91.20;;;;;;4364111;32;44005;-78
2022/06/17 09:28:58;;;;;;;;;;;20.80;91.40;;;;;;4377290;32;42761;-78
2022/06/17 09:31:37;;;;;;;;;;;20.80;91.40;;;;;;4378152;32;20339;-81
2022/06/17 09:34:14;;;;;;;;;;;20.80;91.80;;;;;;4364090;32;44974;-78
2022/06/17 09:36:41;;;;;;;;;;;20.90;91.20;;;;;;4364239;32;43322;-78
2022/06/17 09:39:11;;;;;;;;;;;20.90;91.00;;;;;;4363865;32;42544;-80
2022/06/17 09:41:40;;;;;;;;;;;20.90;90.90;;;;;;4376872;32;43441;-78
2022/06/17 09:44:10;;;;;;;;;;;20.90;90.80;;;;;;4376748;32;42941;-78
2022/06/17 09:47:04;;;;;;;;;;;20.90;91.00;;;;;;4377331;32;43775;-80
2022/06/17 09:49:39;;;;;;;;;;;21.00;91.10;;;;;;4374898;32;42886;-79
2022/06/17 09:52:10;;;;;;;;;;;21.00;90.60;;;;;;4363741;32;43398;-79
2022/06/17 09:54:40;;;;;;;;;;;21.00;90.80;;;;;;4377059;32;44043;-80
2022/06/17 09:57:10;;;;;;;;;;;21.10;90.70;;;;;;4363711;32;44115;-78
2022/06/17 09:59:40;;;;;;;;;;;21.10;90.70;;;;;;4363665;32;43581;-79
2022/06/17 10:02:21;;;;;;;;;;;21.10;90.80;;;;;;4377060;32;26184;-79
2022/06/17 10:04:49;;;;;;;;;;;21.10;90.60;;;;;;4363576;32;44166;-79
2022/06/17 10:07:20;;;;;;;;;;;21.10;90.60;;;;;;4363050;32;42773;-78
2022/06/17 10:09:50;;;;;;;;;;;21.10;90.70;;;;;;4376469;32;43598;-79
2022/06/17 10:12:24;;;;;;;;;;;21.10;90.60;;;;;;4376845;32;44203;-79
2022/06/17 10:15:10;;;;;;;;;;;21.20;90.60;;;;;;4363484;32;42587;-77
2022/06/17 10:20:56;;;;;;;;;;;21.20;90.40;;;;;;4376810;32;43192;-79
2022/06/17 10:23:32;;;;;;;;;;;21.20;90.10;;;;;;4363292;32;44701;-78
2022/06/17 10:26:19;;;;;;;;;;;21.20;90.10;;;;;;4376247;32;42553;-77
2022/06/17 10:28:49;;;;;;;;;;;21.20;89.80;;;;;;4363072;32;43743;-78
2022/06/17 10:31:23;;;;;;;;;;;21.30;90.10;;;;;;4363222;32;43856;-80
2022/06/17 10:33:50;;;;;;;;;;;21.20;90.00;;;;;;4363403;32;23758;-78
2022/06/17 10:36:18;;;;;;;;;;;21.30;90.00;;;;;;4376473;32;45062;-78
2022/06/17 10:38:46;;;;;;;;;;;21.30;90.00;;;;;;4363206;32;43177;-78
2022/06/17 10:41:14;;;;;;;;;;;21.30;89.70;;;;;;4375906;32;43962;-78
2022/06/17 10:43:49;;;;;;;;;;;21.30;89.50;;;;;;4375907;32;42740;-78
2022/06/17 10:46:26;;;;;;;;;;;21.30;89.20;;;;;;4362943;32;44857;-78
2022/06/17 10:48:56;;;;;;;;;;;21.40;89.20;;;;;;4376256;32;42997;-78
2022/06/17 10:51:24;;;;;;;;;;;21.40;89.10;;;;;;4375961;32;44200;-77
2022/06/17 10:53:57;;;;;;;;;;;21.40;88.80;;;;;;4362380;32;42620;-77
2022/06/17 10:56:26;;;;;;;;;;;21.50;89.40;;;;;;4362358;32;42880;-78
2022/06/17 10:59:01;;;;;;;;;;;21.50;89.20;;;;;;4362827;32;43908;-78
2022/06/17 11:01:49;;;;;;;;;;;21.50;88.80;;;;;;4375916;32;42705;-78
2022/06/17 11:04:16;;;;;;;;;;;21.50;87.30;;;;;;4363263;32;20397;-77
2022/06/17 11:06:51;;;;;;;;;;;21.60;87.80;;;;;;4376029;32;45388;-77
2022/06/17 11:09:21;;;;;;;;;;;21.60;88.50;;;;;;4362123;32;42409;-77
2022/06/17 11:12:02;;;;;;;;;;;21.60;87.60;;;;;;4375491;32;43850;-77
2022/06/17 11:14:35;;;;;;;;;;;21.70;88.40;;;;;;4362788;32;44228;-79
2022/06/17 11:17:10;;;;;;;;;;;21.70;89.60;;;;;;4375716;32;42930;-77
2022/06/17 11:19:41;;;;;;;;;;;21.70;89.00;;;;;;4362888;32;43199;-78
2022/06/17 11:22:16;;;;;;;;;;;21.70;89.00;;;;;;4375310;32;43631;-77
2022/06/17 11:24:48;;;;;;;;;;;21.80;89.90;;;;;;4375742;32;44683;-77
2022/06/17 11:27:28;;;;;;;;;;;21.80;89.70;;;;;;4362378;32;43718;-77
2022/06/17 11:29:55;;;;;;;;;;;21.80;87.80;;;;;;4362511;32;43897;-78
2022/06/17 11:32:28;;;;;;;;;;;21.90;88.70;;;;;;4375439;32;43490;-78
2022/06/17 11:34:59;;;;;;;;;;;21.90;89.40;;;;;;4362882;32;22716;-77
2022/06/17 11:37:28;;;;;;;;;;;22.00;89.00;;;;;;4375114;32;43782;-77
2022/06/17 11:40:15;;;;;;;;;;;22.00;88.40;;;;;;4361681;32;44848;-79
2022/06/17 11:42:45;;;;;;;;;;;22.00;88.40;;;;;;4374637;32;44232;-79
2022/06/17 11:45:16;;;;;;;;;;;22.10;88.60;;;;;;4375572;32;43743;-79
2022/06/17 11:47:46;;;;;;;;;;;22.10;88.50;;;;;;4362448;32;43572;-78
2022/06/17 11:50:17;;;;;;;;;;;22.10;88.60;;;;;;4362294;32;44176;-79
2022/06/17 11:52:45;;;;;;;;;;;22.10;89.10;;;;;;4375438;32;42109;-78
2022/06/17 11:55:12;;;;;;;;;;;22.10;90.00;;;;;;4375358;32;42694;-79
2022/06/17 11:57:59;;;;;;;;;;;22.20;89.20;;;;;;4364232;32;46147;-78
2022/06/17 12:00:46;;;;;;;;;;;22.20;89.10;;;;;;4375382;32;43540;-78
2022/06/17 12:03:14;;;;;;;;;;;22.20;88.80;;;;;;4375098;32;44960;-80
2022/06/17 12:05:42;;;;;;;;;;;22.20;88.90;;;;;;4375743;32;20005;-80
2022/06/17 12:08:12;;;;;;;;;;;22.20;89.70;;;;;;4375234;32;45143;-78
2022/06/17 12:10:46;;;;;;;;;;;22.30;90.00;;;;;;4375126;32;43141;-80
2022/06/17 12:13:34;;;;;;;;;;;22.30;89.90;;;;;;4361796;32;42656;-78
2022/06/17 12:16:04;;;;;;;;;;;22.40;90.10;;;;;;4375103;32;43589;-77
2022/06/17 12:18:35;;;;;;;;;;;22.40;90.10;;;;;;4374765;32;43934;-79
2022/06/17 12:21:06;;;;;;;;;;;22.40;90.10;;;;;;4361761;32;43517;-77
2022/06/17 12:23:38;;;;;;;;;;;22.40;90.10;;;;;;4374671;32;42662;-79
2022/06/17 12:26:10;;;;;;;;;;;22.50;90.30;;;;;;4375061;32;44111;-78
2022/06/17 12:28:40;;;;;;;;;;;22.50;90.00;;;;;;4374651;32;42756;-78
2022/06/17 12:31:24;;;;;;;;;;;22.50;90.60;;;;;;4374867;32;44276;-78
2022/06/17 12:34:04;;;;;;;;;;;22.60;90.00;;;;;;4361766;32;43750;-78
2022/06/17 12:36:41;;;;;;;;;;;22.60;90.20;;;;;;4362393;32;20606;-78
2022/06/17 12:39:08;;;;;;;;;;;22.60;90.00;;;;;;4361721;32;43458;-80
2022/06/17 12:41:35;;;;;;;;;;;22.60;90.10;;;;;;4361623;32;43242;-78
2022/06/17 12:44:23;;;;;;;;;;;22.70;90.30;;;;;;4374651;32;43331;-79
2022/06/17 12:46:50;;;;;;;;;;;22.70;90.20;;;;;;4374927;32;45960;-77
2022/06/17 12:55:29;;;;;;;;;;;22.70;89.90;;;;;;4375554;32;43338;-78
2022/06/17 12:58:13;;;;;;;;;;;22.80;89.80;;;;;;4377947;32;44005;-78
2022/06/17 13:00:42;;;;;;;;;;;22.80;89.70;;;;;;4377890;32;43702;-78
2022/06/17 13:03:09;;;;;;;;;;;22.90;89.10;;;;;;4364093;32;43695;-78
2022/06/17 13:05:41;;;;;;;;;;;22.90;89.00;;;;;;4364419;32;43280;-78
2022/06/17 13:08:29;;;;;;;;;;;22.90;89.20;;;;;;4378142;32;20007;-78
2022/06/17 13:11:05;;;;;;;;;;;22.90;89.10;;;;;;4364294;32;44199;-79
2022/06/17 13:13:56;;;;;;;;;;;22.90;88.20;;;;;;4377679;32;45881;-77
2022/06/17 13:16:46;;;;;;;;;;;23.00;87.80;;;;;;4364469;32;44195;-78
2022/06/17 13:19:28;;;;;;;;;;;23.00;86.60;;;;;;4371541;32;44208;-78
2022/06/17 13:22:08;;;;;;;;;;;23.00;88.10;;;;;;4364321;32;45325;-79
2022/06/17 13:24:48;;;;;;;;;;;23.10;88.00;;;;;;4364132;32;42737;-78
2022/06/17 13:27:34;;;;;;;;;;;23.10;87.20;;;;;;4377166;32;43541;-79
2022/06/17 13:30:09;;;;;;;;;;;23.20;87.00;;;;;;4363711;32;43632;-79
2022/06/17 13:32:41;;;;;;;;;;;23.20;88.30;;;;;;4364386;32;45448;-80
2022/06/17 13:35:24;;;;;;;;;;;23.30;87.90;;;;;;4363488;32;43476;-79
2022/06/17 13:37:55;;;;;;;;;;;23.30;87.00;;;;;;4377456;32;43523;-80
2022/06/17 13:40:25;;;;;;;;;;;23.40;87.60;;;;;;4376923;32;43470;-79
2022/06/17 13:42:54;;;;;;;;;;;23.40;88.90;;;;;;4364119;32;43891;-81
2022/06/17 13:45:28;;;;;;;;;;;23.40;89.00;;;;;;4377666;32;45347;-81
2022/06/17 13:48:04;;;;;;;;;;;23.40;89.60;;;;;;4377276;32;46051;-81
2022/06/17 13:50:31;;;;;;;;;;;23.40;89.00;;;;;;4377246;32;43474;-79
2022/06/17 13:53:17;;;;;;;;;;;23.50;87.80;;;;;;4363319;32;42888;-78
2022/06/17 13:56:01;;;;;;;;;;;23.50;88.10;;;;;;4377406;32;43266;-79
2022/06/17 13:58:37;;;;;;;;;;;23.50;88.30;;;;;;4377002;32;42970;-81
2022/06/17 14:01:23;;;;;;;;;;;23.60;88.00;;;;;;4363116;32;44957;-79
2022/06/17 14:03:53;;;;;;;;;;;23.60;88.20;;;;;;4363459;32;43395;-81
2022/06/17 14:06:21;;;;;;;;;;;23.60;88.20;;;;;;4363326;32;44788;-80
2022/06/17 14:08:59;;;;;;;;;;;23.60;87.40;;;;;;4376598;32;43853;-78
2022/06/17 14:11:47;;;;;;;;;;;23.60;87.80;;;;;;4365749;32;43478;-80
2022/06/17 14:14:17;;;;;;;;;;;23.70;86.80;;;;;;4376479;32;43465;-81
2022/06/17 14:16:59;;;;;;;;;;;23.70;87.00;;;;;;4376810;32;45605;-80
2022/06/17 14:19:29;;;;;;;;;;;23.70;87.00;;;;;;4363502;32;43896;-80
2022/06/17 14:21:58;;;;;;;;;;;23.80;87.80;;;;;;4363285;32;44080;-79
2022/06/17 14:24:47;;;;;;;;;;;23.80;87.40;;;;;;4362892;32;43385;-80
2022/06/17 14:27:23;;;;;;;;;;;23.80;87.00;;;;;;4377040;32;42822;-78
2022/06/17 14:30:09;;;;;;;;;;;23.80;86.80;;;;;;4362977;32;45662;-79
2022/06/17 14:32:46;;;;;;;;;;;23.90;87.70;;;;;;4363371;32;43224;-78
2022/06/17 14:35:28;;;;;;;;;;;23.90;88.40;;;;;;4376361;32;43757;-80
2022/06/17 14:38:14;;;;;;;;;;;23.90;87.30;;;;;;4363046;32;42896;-80
2022/06/17 14:44:00;;;;;;;;;;;23.90;86.80;;;;;;4376825;32;20019;-80
2022/06/17 14:46:27;;;;;;;;;;;24.00;88.60;;;;;;4363295;32;43269;-79
2022/06/17 14:49:24;;;;;;;;;;;24.00;88.30;;;;;;4376494;32;43036;-80
2022/06/17 14:51:58;;;;;;;;;;;24.00;87.90;;;;;;4335414;32;42673;-80
2022/06/17 14:54:28;;;;;;;;;;;24.00;87.00;;;;;;4362902;32;45806;-77
2022/06/17 14:57:00;;;;;;;;;;;24.00;86.60;;;;;;4376324;32;43860;-79
2022/06/17 14:59:30;;;;;;;;;;;24.00;85.30;;;;;;4376357;32;42722;-78
2022/06/17 15:02:08;;;;;;;;;;;24.10;85.70;;;;;;4363320;32;43290;-80